Time;durP1;ratioP1;P1;durP2;ratioP2;P2;SDS_P1;SDS_P2;PMS_P1;PMS_P2;Temp;Humidity;BMP_temperature;BMP_pressure;BME280_temperature;BME280_humidity;BME280_pressure;Samples;Min_cycle;Max_cycle;Signal;HPM_P1;HPM_P2
2021/11/18 00:01:52;;;;;;;26.80;9.87;;;8.70;99.90;;;;;;5069309;28;20161;-63
2021/11/18 00:04:19;;;;;;;32.40;10.53;;;8.60;99.90;;;;;;5069058;28;20226;-63
2021/11/18 00:06:48;;;;;;;29.80;10.67;;;8.50;99.90;;;;;;5069418;28;20210;-63
2021/11/18 00:09:19;;;;;;;25.07;10.13;;;8.50;99.90;;;;;;5068849;28;20165;-62
2021/11/18 00:11:45;;;;;;;19.27;9.70;;;8.60;99.90;;;;;;5069528;28;20164;-62
2021/11/18 00:14:11;;;;;;;27.43;10.93;;;8.60;99.90;;;;;;5068551;28;20208;-62
2021/11/18 00:16:38;;;;;;;37.37;10.30;;;8.50;99.90;;;;;;5069218;28;20161;-63
2021/11/18 00:19:04;;;;;;;27.03;11.07;;;8.30;99.90;;;;;;5069046;28;20164;-63
2021/11/18 00:21:34;;;;;;;26.50;11.07;;;8.20;99.90;;;;;;5069199;28;20153;-63
2021/11/18 00:24:01;;;;;;;26.63;10.40;;;8.20;99.90;;;;;;5068230;28;20172;-63
2021/11/18 00:26:28;;;;;;;25.60;10.40;;;8.40;99.90;;;;;;5068994;28;20211;-63
2021/11/18 00:28:54;;;;;;;30.63;11.17;;;8.50;99.90;;;;;;5067359;28;20641;-62
2021/11/18 00:31:32;;;;;;;32.90;12.37;;;8.70;99.90;;;;;;5067677;28;20169;-63
2021/11/18 00:33:58;;;;;;;36.93;10.90;;;8.50;99.90;;;;;;5068469;28;20249;-63
2021/11/18 00:36:25;;;;;;;33.67;10.13;;;8.50;99.90;;;;;;5068944;28;20167;-63
2021/11/18 00:38:52;;;;;;;26.87;10.40;;;8.30;99.90;;;;;;5067172;28;20195;-63
2021/11/18 00:41:19;;;;;;;31.40;11.93;;;8.20;99.90;;;;;;5068831;28;20209;-63
2021/11/18 00:43:45;;;;;;;32.73;11.93;;;8.30;99.90;;;;;;5068321;28;20168;-63
2021/11/18 00:46:12;;;;;;;31.07;10.73;;;8.40;99.90;;;;;;5068584;28;20189;-63
2021/11/18 00:48:39;;;;;;;37.33;11.70;;;8.30;99.90;;;;;;5068518;28;20252;-62
2021/11/18 00:51:08;;;;;;;32.20;12.07;;;8.40;99.90;;;;;;5068561;28;20159;-63
2021/11/18 00:53:49;;;;;;;34.20;11.40;;;8.30;99.90;;;;;;5067900;28;20207;-63
2021/11/18 00:56:17;;;;;;;24.50;11.40;;;8.30;99.90;;;;;;5068556;28;20160;-63
2021/11/18 00:58:43;;;;;;;24.63;10.23;;;8.10;99.90;;;;;;5067066;28;20169;-63
2021/11/18 01:01:09;;;;;;;28.20;11.03;;;8.20;99.90;;;;;;5068386;28;20165;-63
2021/11/18 01:03:35;;;;;;;32.73;10.67;;;8.30;99.90;;;;;;5068119;28;20202;-63
2021/11/18 01:06:01;;;;;;;31.53;11.50;;;8.20;99.90;;;;;;5068106;28;20215;-63
2021/11/18 01:08:27;;;;;;;26.90;11.20;;;8.20;99.90;;;;;;5067970;28;20164;-63
2021/11/18 01:11:00;;;;;;;27.37;11.63;;;8.20;99.90;;;;;;5068269;28;20626;-63
2021/11/18 01:13:26;;;;;;;30.70;11.83;;;8.10;99.90;;;;;;5066251;28;20161;-63
2021/11/18 01:15:53;;;;;;;36.50;12.83;;;8.20;99.90;;;;;;5068099;28;20169;-63
2021/11/18 01:18:19;;;;;;;36.00;12.37;;;8.20;99.90;;;;;;5068006;28;20195;-63
2021/11/18 01:20:46;;;;;;;30.57;12.07;;;8.30;99.90;;;;;;5067884;28;20161;-63
2021/11/18 01:23:16;;;;;;;26.43;12.90;;;8.40;99.90;;;;;;5066267;28;20168;-62
2021/11/18 01:25:42;;;;;;;31.10;12.40;;;8.00;99.90;;;;;;5067725;28;20721;-62
2021/11/18 01:28:08;;;;;;;32.93;12.47;;;8.10;99.90;;;;;;5067952;28;20192;-63
2021/11/18 01:30:37;;;;;;;31.97;12.53;;;8.30;99.90;;;;;;5067780;28;20173;-62
2021/11/18 01:33:06;;;;;;;34.80;13.03;;;8.00;99.90;;;;;;5067576;28;20171;-63
2021/11/18 01:35:34;;;;;;;34.90;14.07;;;8.20;99.90;;;;;;5067509;28;20173;-63
2021/11/18 01:37:59;;;;;;;42.43;13.80;;;8.20;99.90;;;;;;5067271;28;20180;-63
2021/11/18 01:40:30;;;;;;;33.13;12.73;;;8.10;99.90;;;;;;5067666;28;20165;-63
2021/11/18 01:42:57;;;;;;;38.40;13.20;;;8.00;99.90;;;;;;5067518;28;20191;-63
2021/11/18 01:45:25;;;;;;;37.77;14.03;;;8.20;99.90;;;;;;5067316;28;20271;-63
2021/11/18 01:47:51;;;;;;;36.87;14.03;;;8.20;99.90;;;;;;5067262;28;20199;-63
2021/11/18 01:50:21;;;;;;;31.60;13.07;;;8.00;99.90;;;;;;5067361;28;20169;-62
2021/11/18 01:52:47;;;;;;;34.80;14.50;;;7.90;99.90;;;;;;5066975;28;20183;-62
2021/11/18 01:55:15;;;;;;;39.17;13.97;;;7.80;99.90;;;;;;5067077;28;20169;-63
2021/11/18 01:57:42;;;;;;;27.13;13.50;;;7.90;99.90;;;;;;5065833;28;20169;-63
2021/11/18 02:00:12;;;;;;;46.07;13.63;;;7.90;99.90;;;;;;5066985;28;20587;-63
2021/11/18 02:02:38;;;;;;;33.33;13.10;;;7.90;99.90;;;;;;5067223;28;20526;-63
2021/11/18 02:05:33;;;;;;;28.53;13.07;;;8.00;99.90;;;;;;5066614;28;20189;-63
2021/11/18 02:08:00;;;;;;;42.23;13.17;;;8.10;99.90;;;;;;5066658;28;20156;-63
2021/11/18 02:10:32;;;;;;;28.83;12.63;;;7.90;99.90;;;;;;5065710;28;20179;-63
2021/11/18 02:13:04;;;;;;;33.73;13.07;;;7.70;99.90;;;;;;5065614;28;20236;-63
2021/11/18 02:15:31;;;;;;;31.70;12.33;;;7.70;99.90;;;;;;5066657;28;20220;-63
2021/11/18 02:17:58;;;;;;;38.50;13.33;;;7.90;99.90;;;;;;5066950;28;20173;-62
2021/11/18 02:20:33;;;;;;;37.27;13.10;;;7.80;99.90;;;;;;5066267;28;20195;-62
2021/11/18 02:23:00;;;;;;;29.33;13.13;;;8.10;99.90;;;;;;5065031;28;20175;-63
2021/11/18 02:25:32;;;;;;;27.03;12.23;;;8.10;99.90;;;;;;5066446;28;20685;-62
2021/11/18 02:27:58;;;;;;;28.90;13.47;;;8.10;99.90;;;;;;5066884;28;20176;-62
2021/11/18 02:30:26;;;;;;;37.23;13.07;;;8.10;99.90;;;;;;5066560;28;20161;-62
2021/11/18 02:32:54;;;;;;;36.40;13.23;;;8.00;99.90;;;;;;5066578;28;20183;-62
2021/11/18 02:35:27;;;;;;;44.47;14.63;;;7.90;99.90;;;;;;5066417;28;20174;-62
2021/11/18 02:37:55;;;;;;;46.83;14.23;;;8.10;99.90;;;;;;5066413;28;20153;-62
2021/11/18 02:40:22;;;;;;;37.90;13.40;;;7.90;99.90;;;;;;5066327;28;20177;-63
2021/11/18 02:42:49;;;;;;;32.60;13.70;;;7.70;99.90;;;;;;5066151;28;20654;-63
2021/11/18 02:45:21;;;;;;;28.13;14.13;;;7.70;99.90;;;;;;5066031;28;20188;-62
2021/11/18 02:47:46;;;;;;;26.17;13.83;;;7.60;99.90;;;;;;5066547;28;20160;-63
2021/11/18 02:50:16;;;;;;;33.87;13.73;;;7.70;99.90;;;;;;5066173;28;20157;-63
2021/11/18 02:52:42;;;;;;;41.67;13.77;;;7.80;99.90;;;;;;5066390;28;20161;-63
2021/11/18 02:55:12;;;;;;;39.13;13.43;;;7.70;99.90;;;;;;5065628;28;20630;-63
2021/11/18 02:57:38;;;;;;;34.03;14.00;;;7.60;99.90;;;;;;5066320;28;20192;-63
2021/11/18 03:00:14;;;;;;;40.87;13.83;;;7.70;99.90;;;;;;5066130;28;20197;-63
2021/11/18 03:02:40;;;;;;;31.93;14.20;;;7.60;99.90;;;;;;5066357;28;20279;-63
2021/11/18 03:05:07;;;;;;;34.30;13.93;;;7.50;99.90;;;;;;5065809;28;20185;-62
2021/11/18 03:07:33;;;;;;;33.27;14.17;;;7.40;99.90;;;;;;5066350;28;20164;-62
2021/11/18 03:09:59;;;;;;;29.70;13.63;;;7.60;99.90;;;;;;5065778;28;20168;-63
2021/11/18 03:12:25;;;;;;;30.00;14.27;;;7.50;99.90;;;;;;5066285;28;20172;-63
2021/11/18 03:14:51;;;;;;;29.33;13.23;;;7.50;99.90;;;;;;5065510;28;20212;-63
2021/11/18 03:17:17;;;;;;;28.07;14.07;;;7.50;99.90;;;;;;5066314;28;20205;-63
2021/11/18 03:19:43;;;;;;;30.40;14.27;;;7.70;99.90;;;;;;5065942;28;20186;-63
2021/11/18 03:22:10;;;;;;;32.33;13.73;;;7.60;99.90;;;;;;5066130;28;20161;-63
2021/11/18 03:24:36;;;;;;;29.67;14.63;;;7.50;99.90;;;;;;5063969;28;20199;-63
2021/11/18 03:27:01;;;;;;;36.47;13.67;;;7.70;99.90;;;;;;5064783;28;20165;-63
2021/11/18 03:29:27;;;;;;;37.47;14.57;;;7.60;99.90;;;;;;5065813;28;20229;-62
2021/11/18 03:31:53;;;;;;;30.43;14.17;;;7.70;99.90;;;;;;5067847;28;20168;-63
2021/11/18 03:34:22;;;;;;;35.13;13.77;;;7.70;99.90;;;;;;5069610;28;20591;-62
2021/11/18 03:36:49;;;;;;;32.97;14.70;;;7.50;99.90;;;;;;5070068;28;20165;-63
2021/11/18 03:39:16;;;;;;;34.87;13.90;;;7.60;99.90;;;;;;5069605;28;20173;-63
2021/11/18 03:41:44;;;;;;;38.57;15.23;;;7.60;99.90;;;;;;5069936;28;20282;-63
2021/11/18 03:44:12;;;;;;;35.00;13.57;;;7.50;99.90;;;;;;5069384;28;20187;-63
2021/11/18 03:46:49;;;;;;;32.23;14.30;;;7.40;99.90;;;;;;5069963;28;20172;-63
2021/11/18 03:49:16;;;;;;;36.63;13.80;;;7.40;99.90;;;;;;5069713;28;20529;-63
2021/11/18 03:51:43;;;;;;;53.33;14.57;;;7.40;99.90;;;;;;5069716;28;20161;-63
2021/11/18 03:54:12;;;;;;;42.00;15.63;;;7.30;99.90;;;;;;5068971;28;20265;-62
2021/11/18 03:56:39;;;;;;;33.27;13.63;;;7.30;99.90;;;;;;5069776;28;20180;-63
2021/11/18 03:59:18;;;;;;;35.57;15.23;;;7.20;99.90;;;;;;5069332;28;20161;-63
2021/11/18 04:01:45;;;;;;;41.10;14.40;;;7.10;99.90;;;;;;5069552;28;20149;-63
2021/11/18 04:04:14;;;;;;;27.40;14.23;;;7.20;99.90;;;;;;5069060;28;20270;-63
2021/11/18 04:06:40;;;;;;;34.70;13.37;;;7.10;99.90;;;;;;5069422;28;20251;-62
2021/11/18 04:09:07;;;;;;;37.67;14.07;;;7.20;99.90;;;;;;5068924;28;20184;-63
2021/11/18 04:11:34;;;;;;;33.17;14.27;;;7.30;99.90;;;;;;5069282;28;20177;-62
2021/11/18 04:14:00;;;;;;;44.43;14.63;;;7.30;99.90;;;;;;5068750;28;20291;-62
2021/11/18 04:16:26;;;;;;;41.80;14.87;;;7.30;99.90;;;;;;5069207;28;20167;-62
2021/11/18 04:18:51;;;;;;;34.77;14.30;;;7.20;99.90;;;;;;5069221;28;20173;-62
2021/11/18 04:21:18;;;;;;;38.47;14.80;;;7.40;99.90;;;;;;5069173;28;20180;-63
2021/11/18 04:23:44;;;;;;;36.23;15.37;;;7.30;99.90;;;;;;5068214;28;20248;-63
2021/11/18 04:26:09;;;;;;;38.03;14.73;;;7.40;99.90;;;;;;5068810;28;20551;-62
2021/11/18 04:28:35;;;;;;;33.90;15.87;;;7.40;99.90;;;;;;5068909;28;20192;-62
2021/11/18 04:31:09;;;;;;;37.08;16.10;;;7.60;99.90;;;;;;5068806;28;20420;-62
2021/11/18 04:33:36;;;;;;;39.83;15.70;;;7.40;99.90;;;;;;5068810;28;20145;-62
2021/11/18 04:36:05;;;;;;;38.40;14.47;;;7.40;99.90;;;;;;5068551;28;20259;-63
2021/11/18 04:38:31;;;;;;;37.83;15.13;;;7.50;99.90;;;;;;5068313;28;20173;-62
2021/11/18 04:40:57;;;;;;;43.10;15.93;;;7.50;99.90;;;;;;5068868;28;20148;-62
2021/11/18 04:43:24;;;;;;;29.70;14.80;;;7.40;99.90;;;;;;5068186;28;20164;-63
2021/11/18 04:45:50;;;;;;;39.20;15.67;;;7.40;99.90;;;;;;5066530;28;20440;-62
2021/11/18 04:48:16;;;;;;;41.97;15.70;;;7.40;99.90;;;;;;5068523;28;20193;-63
2021/11/18 04:50:43;;;;;;;40.67;15.87;;;7.10;99.90;;;;;;5068319;28;20157;-63
2021/11/18 04:53:09;;;;;;;35.93;14.43;;;7.10;99.90;;;;;;5068097;28;20168;-62
2021/11/18 04:55:36;;;;;;;35.80;14.37;;;7.10;99.90;;;;;;5068265;28;20177;-63
2021/11/18 04:58:03;;;;;;;38.53;15.67;;;7.10;99.90;;;;;;5068318;28;20157;-63
2021/11/18 05:00:40;;;;;;;42.97;16.88;;;7.00;99.90;;;;;;5067643;28;20469;-63
2021/11/18 05:03:07;;;;;;;41.90;15.97;;;7.10;99.90;;;;;;5067995;28;20168;-63
2021/11/18 05:05:33;;;;;;;31.77;14.87;;;7.20;99.90;;;;;;5067799;28;20632;-62
2021/11/18 05:08:00;;;;;;;39.00;15.40;;;7.00;99.90;;;;;;5067907;28;20164;-62
2021/11/18 05:10:26;;;;;;;35.50;14.87;;;7.00;99.90;;;;;;5067665;28;20185;-62
2021/11/18 05:12:52;;;;;;;39.60;14.70;;;6.90;99.90;;;;;;5067762;28;20203;-62
2021/11/18 05:15:20;;;;;;;43.87;16.97;;;6.90;99.90;;;;;;5066668;28;20446;-62
2021/11/18 05:17:47;;;;;;;36.67;16.10;;;6.90;99.90;;;;;;5067657;28;20197;-63
2021/11/18 05:20:16;;;;;;;38.47;15.10;;;6.80;99.90;;;;;;5067518;28;20172;-62
2021/11/18 05:22:42;;;;;;;37.87;14.83;;;6.80;99.90;;;;;;5067716;28;20195;-62
2021/11/18 05:25:08;;;;;;;35.77;15.00;;;6.90;99.90;;;;;;5066929;28;20665;-62
2021/11/18 05:27:34;;;;;;;33.97;15.40;;;7.00;99.90;;;;;;5067522;28;20157;-63
2021/11/18 05:30:00;;;;;;;40.57;16.13;;;6.90;99.90;;;;;;5067498;28;20153;-62
2021/11/18 05:32:26;;;;;;;39.10;15.63;;;7.00;99.90;;;;;;5067485;28;20161;-62
2021/11/18 05:34:51;;;;;;;38.17;15.27;;;6.90;99.90;;;;;;5067223;28;20254;-62
2021/11/18 05:37:17;;;;;;;42.37;15.30;;;7.10;99.90;;;;;;5067462;28;20169;-63
2021/11/18 05:39:43;;;;;;;41.10;16.40;;;6.90;99.90;;;;;;5067209;28;20171;-62
2021/11/18 05:42:10;;;;;;;43.60;16.33;;;7.00;99.90;;;;;;5067431;28;20191;-62
2021/11/18 05:44:35;;;;;;;38.63;14.40;;;7.00;99.90;;;;;;5066942;28;20192;-62
2021/11/18 05:47:01;;;;;;;38.90;15.73;;;7.00;99.90;;;;;;5067382;28;20161;-62
2021/11/18 05:49:27;;;;;;;38.37;16.50;;;7.00;99.90;;;;;;5067338;28;20223;-62
2021/11/18 05:51:53;;;;;;;41.50;15.97;;;7.00;99.90;;;;;;5067460;28;20153;-62
2021/11/18 05:54:19;;;;;;;40.77;15.77;;;7.00;99.90;;;;;;5065935;28;20193;-63
2021/11/18 05:56:45;;;;;;;41.90;17.80;;;7.00;99.90;;;;;;5067197;28;20163;-62
2021/11/18 05:59:12;;;;;;;34.33;15.13;;;7.10;99.90;;;;;;5067257;28;20157;-63
2021/11/18 06:01:39;;;;;;;43.53;15.63;;;7.10;99.90;;;;;;5067123;28;20157;-62
2021/11/18 06:04:05;;;;;;;38.93;16.87;;;7.00;99.90;;;;;;5066537;28;20163;-62
2021/11/18 06:06:31;;;;;;;38.90;15.90;;;7.00;99.90;;;;;;5066788;28;20220;-62
2021/11/18 06:09:02;;;;;;;36.27;16.30;;;7.00;99.90;;;;;;5066465;28;20168;-63
2021/11/18 06:11:33;;;;;;;39.33;15.80;;;6.90;99.90;;;;;;5066748;28;20199;-63
2021/11/18 06:13:59;;;;;;;37.13;17.67;;;6.80;99.90;;;;;;5066562;28;20261;-62
2021/11/18 06:16:26;;;;;;;41.47;18.38;;;6.90;99.90;;;;;;5065489;28;20491;-62
2021/11/18 06:18:54;;;;;;;35.30;16.70;;;7.00;99.90;;;;;;5066866;28;20161;-63
2021/11/18 06:21:20;;;;;;;41.33;16.70;;;7.00;99.90;;;;;;5065987;28;20172;-62
2021/11/18 06:23:46;;;;;;;34.17;15.03;;;6.70;99.90;;;;;;5066345;28;20172;-63
2021/11/18 06:26:14;;;;;;;40.57;17.13;;;6.60;99.90;;;;;;5066339;28;20487;-63
2021/11/18 06:28:41;;;;;;;37.90;16.20;;;6.60;99.90;;;;;;5066693;28;20638;-63
2021/11/18 06:31:10;;;;;;;35.23;15.53;;;6.70;99.90;;;;;;5066574;28;20199;-62
2021/11/18 06:33:36;;;;;;;34.92;16.33;;;6.70;99.90;;;;;;5066351;28;20063;-62
2021/11/18 06:36:02;;;;;;;42.37;16.07;;;6.80;99.90;;;;;;5066339;28;20197;-62
2021/11/18 06:38:28;;;;;;;35.83;16.57;;;6.90;99.90;;;;;;5066036;28;20171;-62
2021/11/18 06:40:55;;;;;;;51.00;18.17;;;6.90;99.90;;;;;;5066063;28;20156;-62
2021/11/18 06:43:21;;;;;;;42.67;16.93;;;6.80;99.90;;;;;;5066254;28;20161;-62
2021/11/18 06:45:47;;;;;;;35.07;15.33;;;6.70;99.90;;;;;;5064593;28;20192;-62
2021/11/18 06:48:14;;;;;;;42.23;17.00;;;6.60;99.90;;;;;;5066162;28;20159;-62
2021/11/18 06:50:41;;;;;;;40.27;18.23;;;6.60;99.90;;;;;;5066295;28;20165;-62
2021/11/18 06:53:07;;;;;;;42.67;20.10;;;6.50;99.90;;;;;;5065991;28;20168;-62
2021/11/18 06:55:33;;;;;;;52.03;21.80;;;6.60;99.90;;;;;;5065862;28;20169;-62
2021/11/18 06:57:58;;;;;;;42.23;19.60;;;6.60;99.90;;;;;;5066448;28;20221;-62
2021/11/18 07:00:24;;;;;;;48.87;21.43;;;6.60;99.90;;;;;;5066105;28;20203;-62
2021/11/18 07:02:51;;;;;;;48.57;21.17;;;6.60;99.90;;;;;;5064735;28;20188;-62
2021/11/18 07:05:17;;;;;;;42.30;17.23;;;6.60;99.90;;;;;;5065348;28;20200;-62
2021/11/18 07:07:42;;;;;;;37.60;18.60;;;6.60;99.90;;;;;;5065905;28;20167;-62
2021/11/18 07:10:10;;;;;;;44.63;18.83;;;6.60;99.90;;;;;;5065586;28;20177;-62
2021/11/18 07:12:36;;;;;;;54.77;23.97;;;6.50;99.90;;;;;;5065875;28;20222;-63
2021/11/18 07:15:04;;;;;;;44.33;18.13;;;6.50;99.90;;;;;;5065501;28;20209;-62
2021/11/18 07:17:31;;;;;;;40.97;18.00;;;6.50;99.90;;;;;;5065596;28;20192;-62
2021/11/18 07:19:57;;;;;;;43.93;17.00;;;6.40;99.90;;;;;;5065739;28;20164;-62
2021/11/18 07:22:23;;;;;;;43.53;16.87;;;6.50;99.90;;;;;;5065833;28;20173;-62
2021/11/18 07:24:51;;;;;;;48.10;17.03;;;6.40;99.90;;;;;;5065094;28;20191;-63
2021/11/18 07:27:17;;;;;;;54.73;18.53;;;6.40;99.90;;;;;;5065960;28;20157;-63
2021/11/18 07:29:42;;;;;;;43.20;17.37;;;6.40;99.90;;;;;;5065756;28;20640;-63
2021/11/18 07:32:08;;;;;;;45.97;17.03;;;6.50;99.90;;;;;;5065603;28;20172;-63
2021/11/18 07:34:34;;;;;;;43.67;17.07;;;6.50;99.90;;;;;;5065363;28;20168;-63
2021/11/18 07:36:59;;;;;;;40.93;16.73;;;6.60;99.90;;;;;;5065575;28;20168;-63
2021/11/18 07:39:25;;;;;;;49.17;17.23;;;6.70;99.90;;;;;;5065231;28;20203;-63
2021/11/18 07:41:53;;;;;;;49.77;16.20;;;6.70;99.90;;;;;;5064302;28;20165;-63
2021/11/18 07:44:19;;;;;;;43.07;15.77;;;6.70;99.90;;;;;;5065321;28;20179;-63
2021/11/18 07:46:45;;;;;;;45.47;16.17;;;6.70;99.90;;;;;;5065751;28;20168;-63
2021/11/18 07:49:11;;;;;;;30.60;15.07;;;6.60;99.90;;;;;;5065721;28;20161;-63
2021/11/18 07:51:38;;;;;;;34.07;15.00;;;6.50;99.90;;;;;;5065480;28;20173;-63
2021/11/18 07:54:06;;;;;;;41.03;15.07;;;6.60;99.90;;;;;;5065116;28;20169;-62
2021/11/18 07:56:33;;;;;;;43.80;16.10;;;6.70;99.90;;;;;;5065157;28;20534;-64
2021/11/18 07:58:58;;;;;;;35.60;14.47;;;6.70;99.90;;;;;;5065582;28;20180;-64
2021/11/18 08:01:24;;;;;;;38.40;13.90;;;6.60;99.90;;;;;;5065410;28;20169;-61
2021/11/18 08:03:50;;;;;;;34.30;14.73;;;6.70;99.90;;;;;;5064945;28;20172;-61
2021/11/18 08:06:20;;;;;;;36.93;14.27;;;6.70;99.90;;;;;;5065098;28;20201;-61
2021/11/18 08:08:47;;;;;;;34.57;14.60;;;7.00;99.90;;;;;;5064851;28;20318;-61
2021/11/18 08:11:21;;;;;;;39.37;14.17;;;6.90;99.90;;;;;;5065378;28;20149;-61
2021/11/18 08:13:48;;;;;;;35.47;14.70;;;7.10;99.90;;;;;;5065093;28;20219;-62
2021/11/18 08:16:13;;;;;;;42.50;13.47;;;7.00;99.90;;;;;;5063944;28;20169;-62
2021/11/18 08:18:39;;;;;;;38.30;14.33;;;7.00;99.90;;;;;;5068047;28;20252;-62
2021/11/18 08:21:06;;;;;;;37.33;14.03;;;6.80;99.90;;;;;;5068932;28;20627;-62
2021/11/18 08:23:33;;;;;;;26.90;13.30;;;6.80;99.90;;;;;;5067218;28;20161;-62
2021/11/18 08:26:01;;;;;;;37.80;13.23;;;6.70;99.90;;;;;;5067020;28;20250;-62
2021/11/18 08:28:27;;;;;;;39.50;13.80;;;6.80;99.90;;;;;;5068944;28;20223;-62
2021/11/18 08:30:53;;;;;;;29.43;13.27;;;6.80;99.90;;;;;;5069048;28;20153;-62
2021/11/18 08:33:19;;;;;;;25.70;12.90;;;7.10;99.90;;;;;;5068624;28;20230;-62
2021/11/18 08:35:45;;;;;;;31.93;12.63;;;7.10;99.90;;;;;;5068503;28;20597;-62
2021/11/18 08:38:13;;;;;;;34.03;12.93;;;7.10;99.90;;;;;;5068679;28;20202;-61
2021/11/18 08:40:48;;;;;;;27.17;12.53;;;7.20;99.90;;;;;;5068666;28;20168;-62
2021/11/18 08:43:13;;;;;;;36.73;13.53;;;7.30;99.90;;;;;;5068496;28;20198;-62
2021/11/18 08:45:39;;;;;;;38.43;13.30;;;7.40;99.90;;;;;;5068234;28;20193;-62
2021/11/18 08:48:06;;;;;;;26.10;12.13;;;7.40;99.90;;;;;;5068672;28;20161;-62
2021/11/18 08:50:32;;;;;;;35.20;12.50;;;7.30;99.90;;;;;;5068319;28;20211;-62
2021/11/18 08:52:59;;;;;;;31.27;12.20;;;7.40;99.90;;;;;;5068440;28;20626;-62
2021/11/18 08:55:29;;;;;;;49.93;14.23;;;7.50;99.90;;;;;;5066582;28;20630;-63
2021/11/18 08:57:55;;;;;;;35.10;12.00;;;7.60;99.90;;;;;;5068536;28;20153;-62
2021/11/18 09:00:26;;;;;;;29.57;12.63;;;7.60;99.90;;;;;;5068166;28;20168;-62
2021/11/18 09:02:52;;;;;;;30.73;11.70;;;7.50;99.90;;;;;;5068274;28;20149;-62
2021/11/18 09:05:20;;;;;;;31.73;13.73;;;7.60;99.90;;;;;;5067782;28;20248;-62
2021/11/18 09:07:45;;;;;;;26.70;11.50;;;7.70;99.90;;;;;;5068137;28;20161;-62
2021/11/18 09:10:12;;;;;;;30.80;11.97;;;7.70;99.90;;;;;;5067705;28;20652;-62
2021/11/18 09:12:39;;;;;;;33.13;12.77;;;7.80;99.90;;;;;;5068104;28;20196;-62
2021/11/18 09:15:05;;;;;;;27.97;12.50;;;8.00;99.90;;;;;;5067671;28;20607;-62
2021/11/18 09:17:31;;;;;;;27.87;12.50;;;8.10;99.90;;;;;;5066856;28;20173;-62
2021/11/18 09:19:57;;;;;;;34.67;11.97;;;7.90;99.90;;;;;;5068056;28;20172;-63
2021/11/18 09:22:22;;;;;;;28.23;11.30;;;8.00;99.90;;;;;;5066723;28;20267;-62
2021/11/18 09:24:57;;;;;;;28.17;12.17;;;8.00;99.90;;;;;;5067136;28;20203;-62
2021/11/18 09:27:56;;;;;;;30.73;12.73;;;8.00;99.90;;;;;;5067881;28;20148;-62
2021/11/18 09:30:31;;;;;;;34.60;11.90;;;8.10;99.90;;;;;;5007902;28;20210;-62
2021/11/18 09:32:58;;;;;;;27.67;11.43;;;8.30;99.90;;;;;;5025849;28;20182;-62
2021/11/18 09:35:28;;;;;;;27.27;11.33;;;8.40;99.90;;;;;;5025438;28;20182;-62
2021/11/18 09:37:54;;;;;;;29.43;12.13;;;8.30;99.90;;;;;;5025615;28;20461;-62
2021/11/18 09:40:25;;;;;;;30.13;12.57;;;8.40;99.90;;;;;;5008746;28;20194;-64
2021/11/18 09:43:34;;;;;;;24.30;11.00;;;8.60;99.90;;;;;;5008418;28;20173;-62
2021/11/18 09:46:16;;;;;;;32.07;11.57;;;8.40;99.90;;;;;;5024656;28;20217;-61
2021/11/18 09:49:12;;;;;;;28.50;11.93;;;8.40;99.90;;;;;;5025256;28;20158;-62
2021/11/18 09:51:50;;;;;;;38.60;13.17;;;8.40;99.90;;;;;;5025144;28;20234;-61
2021/11/18 09:54:36;;;;;;;31.23;11.70;;;8.60;99.90;;;;;;5024630;28;20205;-62
2021/11/18 09:57:28;;;;;;;33.00;12.93;;;8.70;99.90;;;;;;5025120;28;20170;-62
2021/11/18 10:00:07;;;;;;;28.27;11.67;;;8.70;99.90;;;;;;5008502;28;20188;-63
2021/11/18 10:02:54;;;;;;;28.37;11.30;;;8.80;99.90;;;;;;5025238;28;20269;-63
2021/11/18 10:05:25;;;;;;;27.87;10.30;;;9.10;99.90;;;;;;5035332;28;20231;-63
2021/11/18 10:07:56;;;;;;;32.30;11.33;;;9.20;99.90;;;;;;5067001;28;20165;-63
2021/11/18 10:10:52;;;;;;;21.43;10.57;;;9.10;99.90;;;;;;5066918;28;20159;-63
2021/11/18 10:13:34;;;;;;;33.47;11.87;;;9.20;99.90;;;;;;5066672;28;20211;-63
2021/11/18 10:16:18;;;;;;;27.20;11.30;;;9.20;99.90;;;;;;5066604;28;20180;-63
2021/11/18 10:18:48;;;;;;;43.50;11.23;;;9.30;99.90;;;;;;5066898;28;20207;-63
2021/11/18 10:21:22;;;;;;;21.53;9.97;;;9.10;99.90;;;;;;5066271;28;20538;-63
2021/11/18 10:23:51;;;;;;;26.47;10.23;;;9.30;99.90;;;;;;5066598;28;20199;-63
2021/11/18 10:26:23;;;;;;;24.87;9.60;;;9.40;99.90;;;;;;5066387;28;20262;-63
2021/11/18 10:29:27;;;;;;;25.13;9.87;;;9.50;99.90;;;;;;5066758;28;20152;-62
2021/11/18 10:31:58;;;;;;;29.05;10.57;;;9.60;99.90;;;;;;5065464;28;20412;-63
2021/11/18 10:34:41;;;;;;;35.67;9.47;;;9.70;99.90;;;;;;5066560;28;20164;-63
2021/11/18 10:37:14;;;;;;;34.90;10.40;;;9.80;99.90;;;;;;5066538;28;20168;-63
2021/11/18 10:39:52;;;;;;;23.03;9.87;;;10.00;99.90;;;;;;5064525;28;20180;-63
2021/11/18 10:42:38;;;;;;;22.63;9.23;;;10.00;99.90;;;;;;5066379;28;20172;-63
2021/11/18 10:45:11;;;;;;;27.63;9.27;;;10.00;99.90;;;;;;5064534;28;20192;-63
2021/11/18 10:48:01;;;;;;;26.33;9.70;;;10.10;99.90;;;;;;5066373;28;20250;-63
2021/11/18 10:50:35;;;;;;;25.70;9.30;;;10.20;99.90;;;;;;5065864;28;20180;-63
2021/11/18 10:53:22;;;;;;;53.57;12.07;;;10.10;99.90;;;;;;5066312;28;20163;-63
2021/11/18 10:56:01;;;;;;;29.60;9.67;;;10.00;99.90;;;;;;5065992;28;20191;-63
2021/11/18 10:58:27;;;;;;;25.80;8.57;;;10.20;99.90;;;;;;5066246;28;20153;-63
2021/11/18 11:01:14;;;;;;;25.73;9.67;;;10.20;99.90;;;;;;5066021;28;20190;-62
2021/11/18 11:03:43;;;;;;;24.73;9.33;;;10.50;99.90;;;;;;5066131;28;20164;-62
2021/11/18 11:06:33;;;;;;;30.80;9.07;;;10.40;99.90;;;;;;5065806;28;20188;-63
2021/11/18 11:09:08;;;;;;;24.93;9.70;;;10.50;99.90;;;;;;5065365;28;20177;-63
2021/11/18 11:12:02;;;;;;;20.95;8.00;;;10.50;99.90;;;;;;5064767;28;20682;-63
2021/11/18 11:14:33;;;;;;;28.70;8.70;;;10.50;99.90;;;;;;5065710;28;20242;-63
2021/11/18 11:17:11;;;;;;;31.10;7.43;;;10.70;99.90;;;;;;5065871;28;20160;-63
2021/11/18 11:19:44;;;;;;;23.07;8.20;;;10.80;99.90;;;;;;5065769;28;20691;-62
2021/11/18 11:22:22;;;;;;;25.80;8.53;;;10.90;99.90;;;;;;5065682;28;20168;-63
2021/11/18 11:25:11;;;;;;;19.50;8.17;;;10.80;99.90;;;;;;5065096;28;20192;-62
2021/11/18 11:27:58;;;;;;;26.42;8.57;;;10.70;99.90;;;;;;5065307;28;20414;-64
2021/11/18 11:30:33;;;;;;;29.42;8.73;;;10.90;99.90;;;;;;5065701;28;20166;-63
2021/11/18 11:33:06;;;;;;;22.10;7.53;;;10.90;99.90;;;;;;5065677;28;20642;-63
2021/11/18 11:36:02;;;;;;;25.85;7.65;;;11.10;99.90;;;;;;5065564;28;20177;-63
2021/11/18 11:38:51;;;;;;;32.17;8.85;;;11.10;99.90;;;;;;5065534;28;20173;-63
2021/11/18 11:41:35;;;;;;;26.08;8.13;;;11.30;99.90;;;;;;5064398;28;20893;-63
2021/11/18 11:44:40;;;;;;;28.52;8.60;;;11.40;99.90;;;;;;5065571;28;20175;-63
2021/11/18 11:47:34;;;;;;;27.80;7.60;;;11.50;99.90;;;;;;5064170;28;20195;-63
2021/11/18 11:50:05;;;;;;;32.20;7.80;;;11.60;99.90;;;;;;5065272;28;20165;-63
2021/11/18 11:52:40;;;;;;;21.90;6.95;;;11.80;99.90;;;;;;5066533;28;20172;-63
2021/11/18 11:55:19;;;;;;;30.02;7.47;;;11.60;99.90;;;;;;5068636;28;20176;-63
2021/11/18 11:57:54;;;;;;;23.98;6.70;;;11.80;99.90;;;;;;5069361;28;20153;-63
2021/11/18 12:00:40;;;;;;;29.98;6.93;;;11.80;99.90;;;;;;5069175;28;20165;-63
2021/11/18 12:03:33;;;;;;;31.42;7.50;;;12.00;99.90;;;;;;5068028;28;20157;-63
2021/11/18 12:06:08;;;;;;;26.92;7.10;;;12.10;99.90;;;;;;5068912;28;20200;-63
2021/11/18 12:08:57;;;;;;;22.00;6.28;;;12.00;99.90;;;;;;5068838;28;20152;-62
2021/11/18 12:11:51;;;;;;;23.65;8.38;;;12.00;99.90;;;;;;5065698;28;20188;-63
2021/11/18 12:14:35;;;;;;;22.00;7.75;;;12.20;99.90;;;;;;5069055;28;20212;-63
2021/11/18 12:17:37;;;;;;;22.38;6.80;;;12.10;99.90;;;;;;5067427;28;20188;-63
2021/11/18 12:20:18;;;;;;;24.38;7.78;;;12.00;99.90;;;;;;5068736;28;20196;-63
2021/11/18 12:22:43;;;;;;;21.20;7.15;;;12.00;99.90;;;;;;5068945;28;20148;-63
2021/11/18 12:25:21;;;;;;;22.65;7.47;;;12.10;99.90;;;;;;5068368;28;20657;-63
2021/11/18 12:28:12;;;;;;;31.30;7.60;;;12.30;99.90;;;;;;5067500;28;20688;-63
2021/11/18 12:30:46;;;;;;;22.83;7.60;;;12.30;99.90;;;;;;5068255;28;20164;-63
2021/11/18 12:33:18;;;;;;;27.67;7.82;;;12.40;99.90;;;;;;5068878;28;20160;-63
2021/11/18 12:36:05;;;;;;;26.38;7.70;;;12.40;99.90;;;;;;5067293;28;20234;-63
2021/11/18 12:38:37;;;;;;;48.53;9.35;;;12.60;99.90;;;;;;5068509;28;20156;-63
2021/11/18 12:41:21;;;;;;;26.83;7.00;;;12.60;99.90;;;;;;5068665;28;20173;-63
2021/11/18 12:43:59;;;;;;;25.73;6.95;;;12.80;99.90;;;;;;5068346;28;20173;-63
2021/11/18 12:46:32;;;;;;;21.70;7.22;;;12.70;99.90;;;;;;5068335;28;20192;-63
2021/11/18 12:49:08;;;;;;;23.67;6.78;;;12.70;99.90;;;;;;5067317;28;20164;-63
2021/11/18 12:51:49;;;;;;;23.58;6.10;;;12.90;99.90;;;;;;5068414;28;20171;-63
2021/11/18 12:54:27;;;;;;;21.00;6.10;;;12.90;99.90;;;;;;5067994;28;20165;-63
2021/11/18 12:57:00;;;;;;;21.77;6.30;;;12.90;99.90;;;;;;5068288;28;20178;-63